Eghezee, Belgium
Current Conditions -  °F | °C
As of 4:25 PM on Saturday 25 Oct 2014 (Local Time) from EBBE Reporting Station
Broken Clouds Broken Clouds  
Wind Chill: 57°   Ceiling: 3200
Heat Index: 57°   Visibility: 6mi
Dew Point: 52°   Wind: 8mph
Humidity: 82%   Direction: 250°WSW
Pressure: 30.12"   Gusts: NA
Location:  50.59°N, 4.91°E
Report Text: EBBE 251425Z AUTO 25007KT 9999 FEW014/// SCT027/// BKN032/// 14/11 Q1020 BLU
Loading
Personal Weather Stations






























Interactive Weather Map
Tropical Storm Tracking
New forecast layout! Learn more

10-Day Weather Forecast

Advertisements
Track Severe Weather on mobile